Time;durP1;ratioP1;P1;durP2;ratioP2;P2;SDS_P1;SDS_P2;PMS_P1;PMS_P2;Temp;Humidity;BMP_temperature;BMP_pressure;BME280_temperature;BME280_humidity;BME280_pressure;Samples;Min_cycle;Max_cycle;Signal;HPM_P1;HPM_P2
2022/07/27 00:01:28;;;;;;;4.40;3.45;;;18.50;98.80;;;;;;5032395;28;20199;-89
2022/07/27 00:03:55;;;;;;;3.92;3.40;;;18.40;98.50;;;;;;5033815;28;20199;-89
2022/07/27 00:06:22;;;;;;;4.05;3.58;;;18.40;98.70;;;;;;5034643;28;20199;-89
2022/07/27 00:08:52;;;;;;;5.60;3.60;;;18.30;98.70;;;;;;5034470;28;20658;-89
2022/07/27 00:11:20;;;;;;;5.88;3.67;;;18.20;99.10;;;;;;5030875;28;20209;-89
2022/07/27 00:13:47;;;;;;;4.70;3.70;;;18.30;99.30;;;;;;5036144;28;20200;-88
2022/07/27 00:16:16;;;;;;;5.05;3.45;;;18.20;99.30;;;;;;5037307;28;20209;-88
2022/07/27 00:18:43;;;;;;;4.07;3.63;;;18.20;99.40;;;;;;5036546;28;20199;-87
2022/07/27 00:21:10;;;;;;;4.32;3.60;;;18.10;99.70;;;;;;5035174;28;20214;-88
2022/07/27 00:23:40;;;;;;;4.72;3.33;;;18.00;99.60;;;;;;5033800;28;20200;-88
2022/07/27 00:26:07;;;;;;;4.70;3.83;;;18.20;99.90;;;;;;5032286;28;20747;-88
2022/07/27 00:28:35;;;;;;;6.07;3.85;;;18.20;99.90;;;;;;5026844;28;20209;-88
2022/07/27 00:31:02;;;;;;;7.72;3.95;;;18.20;99.90;;;;;;5028367;28;20593;-88
2022/07/27 00:33:29;;;;;;;4.63;4.00;;;18.20;99.90;;;;;;5030231;28;20214;-89
2022/07/27 00:35:56;;;;;;;5.65;3.92;;;18.20;99.90;;;;;;5031466;28;20206;-89
2022/07/27 00:38:23;;;;;;;5.18;3.65;;;18.30;99.90;;;;;;5027930;28;20203;-88
2022/07/27 00:40:50;;;;;;;5.93;3.67;;;18.50;99.80;;;;;;5029986;28;20210;-88
2022/07/27 00:43:17;;;;;;;6.25;3.75;;;18.50;99.60;;;;;;5032494;28;20605;-89
2022/07/27 00:45:46;;;;;;;5.30;3.63;;;18.60;99.60;;;;;;5026660;28;20618;-88
2022/07/27 00:48:13;;;;;;;4.97;3.92;;;18.60;99.10;;;;;;5031702;28;20567;-88
2022/07/27 00:50:42;;;;;;;6.15;3.80;;;18.60;99.10;;;;;;5022546;28;20566;-88
2022/07/27 00:53:09;;;;;;;4.30;3.80;;;18.60;99.40;;;;;;5026562;28;20230;-88
2022/07/27 00:55:38;;;;;;;4.00;3.60;;;18.70;99.20;;;;;;5031138;28;20579;-88
2022/07/27 00:58:08;;;;;;;3.95;3.53;;;18.80;98.90;;;;;;5027825;28;20570;-88
2022/07/27 01:00:35;;;;;;;3.70;3.40;;;18.90;98.60;;;;;;5028670;28;20637;-88
2022/07/27 01:03:04;;;;;;;4.15;3.42;;;19.00;98.60;;;;;;5038338;28;20205;-88
2022/07/27 01:05:31;;;;;;;5.25;4.00;;;18.90;98.40;;;;;;5037824;28;20206;-87
2022/07/27 01:07:58;;;;;;;5.47;3.80;;;18.80;98.30;;;;;;5032034;28;20203;-88
2022/07/27 01:10:25;;;;;;;6.57;3.65;;;18.70;98.50;;;;;;5029155;28;20569;-89
2022/07/27 01:13:11;;;;;;;5.78;3.70;;;18.70;98.40;;;;;;5034400;28;20199;-88
2022/07/27 01:15:38;;;;;;;8.30;3.83;;;18.80;98.70;;;;;;5029801;28;20195;-89
2022/07/27 01:18:11;;;;;;;4.13;3.72;;;18.90;98.30;;;;;;5031078;28;20199;-88
2022/07/27 01:20:40;;;;;;;4.47;3.72;;;19.10;97.90;;;;;;5028046;28;20788;-89
2022/07/27 01:23:08;;;;;;;4.93;3.63;;;19.20;97.90;;;;;;5029637;28;20199;-88
2022/07/27 01:25:35;;;;;;;5.30;3.42;;;19.10;97.50;;;;;;5036205;28;20222;-88
2022/07/27 01:28:01;;;;;;;4.85;3.60;;;19.00;97.80;;;;;;5027156;28;20207;-89
2022/07/27 01:30:29;;;;;;;8.73;3.65;;;19.10;97.40;;;;;;5032150;28;20218;-90
2022/07/27 01:33:03;;;;;;;7.10;3.88;;;19.00;97.20;;;;;;5033080;28;20306;-88
2022/07/27 01:35:35;;;;;;;5.82;3.60;;;18.80;97.80;;;;;;5030502;28;20654;-89
2022/07/27 01:38:02;;;;;;;3.72;3.42;;;18.70;97.80;;;;;;5029293;28;20217;-88
2022/07/27 01:40:30;;;;;;;4.07;3.72;;;18.50;98.30;;;;;;5030730;28;20256;-88
2022/07/27 01:42:57;;;;;;;4.80;3.55;;;18.30;98.90;;;;;;5026655;28;20202;-88
2022/07/27 01:45:24;;;;;;;5.00;3.75;;;18.20;99.00;;;;;;5029601;28;20191;-88
2022/07/27 01:47:51;;;;;;;3.67;3.38;;;18.20;99.20;;;;;;5029085;28;20294;-88
2022/07/27 01:50:18;;;;;;;4.18;3.72;;;18.20;99.40;;;;;;5032553;28;20228;-88
2022/07/27 01:52:45;;;;;;;5.38;3.50;;;18.30;99.30;;;;;;5027866;28;20202;-88
2022/07/27 01:55:12;;;;;;;3.58;3.28;;;18.30;98.60;;;;;;5030406;28;20191;-88
2022/07/27 01:57:40;;;;;;;5.30;3.75;;;18.20;98.80;;;;;;5028190;28;20268;-89
2022/07/27 02:00:11;;;;;;;4.78;3.47;;;18.10;98.90;;;;;;5033500;28;20211;-88
2022/07/27 02:02:38;;;;;;;6.53;3.90;;;18.00;98.90;;;;;;5029822;28;20253;-88
2022/07/27 02:05:05;;;;;;;4.70;4.05;;;17.90;99.00;;;;;;5029612;28;20580;-89
2022/07/27 02:07:32;;;;;;;4.50;3.42;;;17.90;99.50;;;;;;5032018;28;20281;-88
2022/07/27 02:09:59;;;;;;;5.43;3.22;;;17.90;99.10;;;;;;5031190;28;20229;-88
2022/07/27 02:12:37;;;;;;;4.90;3.47;;;17.80;98.80;;;;;;5032485;28;20289;-88
2022/07/27 02:15:11;;;;;;;3.92;3.50;;;17.70;98.70;;;;;;5031421;28;20213;-88
2022/07/27 02:17:39;;;;;;;6.47;3.22;;;17.70;98.70;;;;;;5029639;28;20308;-88
2022/07/27 02:20:08;;;;;;;3.83;3.35;;;17.80;98.70;;;;;;5027738;28;20662;-88
2022/07/27 02:22:35;;;;;;;3.60;3.00;;;17.80;97.60;;;;;;5029971;28;20613;-88
2022/07/27 02:25:02;;;;;;;3.63;3.20;;;17.80;97.60;;;;;;5025526;28;20599;-88
2022/07/27 02:27:41;;;;;;;4.63;3.30;;;17.90;97.60;;;;;;5032354;28;20568;-88
2022/07/27 02:30:12;;;;;;;4.05;2.90;;;17.90;97.70;;;;;;5026968;28;20698;-88
2022/07/27 02:32:42;;;;;;;6.57;3.17;;;18.00;97.00;;;;;;5027545;28;20238;-88
2022/07/27 02:35:09;;;;;;;5.13;3.42;;;17.90;96.70;;;;;;5030551;28;20198;-88
2022/07/27 02:37:36;;;;;;;5.38;3.38;;;17.80;96.70;;;;;;5026208;28;20210;-88
2022/07/27 02:40:04;;;;;;;5.00;3.22;;;17.80;96.60;;;;;;5031482;28;20195;-88
2022/07/27 02:42:31;;;;;;;3.55;3.25;;;17.80;96.70;;;;;;5022347;28;20226;-88
2022/07/27 02:44:58;;;;;;;3.58;3.28;;;17.90;97.10;;;;;;5029750;28;20205;-88
2022/07/27 02:47:26;;;;;;;3.65;3.35;;;18.00;97.60;;;;;;5030945;28;20293;-89
2022/07/27 02:49:53;;;;;;;3.65;3.28;;;18.00;97.60;;;;;;5030460;28;20205;-88
2022/07/27 02:52:20;;;;;;;5.28;4.03;;;18.00;97.60;;;;;;5025851;28;20198;-87
2022/07/27 02:54:46;;;;;;;4.45;3.88;;;17.90;98.10;;;;;;5028383;28;20260;-86
2022/07/27 02:57:13;;;;;;;4.07;3.67;;;17.80;98.80;;;;;;5027468;28;20193;-87
2022/07/27 02:59:40;;;;;;;3.67;3.33;;;17.90;98.90;;;;;;5025380;28;20201;-87
2022/07/27 03:02:07;;;;;;;4.55;3.60;;;17.90;98.80;;;;;;5030373;28;20270;-87
2022/07/27 03:04:35;;;;;;;4.47;3.67;;;17.90;98.80;;;;;;5027736;28;20203;-86
2022/07/27 03:07:02;;;;;;;6.32;3.30;;;17.90;98.50;;;;;;5038767;28;20289;-87
2022/07/27 03:09:29;;;;;;;5.25;3.67;;;17.90;98.60;;;;;;5042274;28;20846;-87
2022/07/27 03:11:58;;;;;;;6.28;3.50;;;17.80;98.40;;;;;;5032026;28;20223;-87
2022/07/27 03:14:25;;;;;;;3.90;3.40;;;17.80;98.90;;;;;;5032031;28;20630;-87
2022/07/27 03:16:52;;;;;;;4.00;3.70;;;17.70;99.20;;;;;;5037117;28;20289;-86
2022/07/27 03:19:19;;;;;;;6.32;3.58;;;17.80;98.80;;;;;;5036791;28;20201;-87
2022/07/27 03:21:47;;;;;;;4.72;3.42;;;17.90;97.80;;;;;;5030564;28;20650;-87
2022/07/27 03:24:14;;;;;;;4.45;3.35;;;18.00;97.60;;;;;;5032590;28;20203;-87
2022/07/27 03:26:41;;;;;;;6.68;3.38;;;18.00;97.60;;;;;;5031237;28;20206;-87
2022/07/27 03:29:10;;;;;;;5.47;3.10;;;17.90;97.60;;;;;;5037062;28;20209;-87
2022/07/27 03:31:37;;;;;;;4.90;3.38;;;17.80;97.60;;;;;;5030451;28;20706;-86
2022/07/27 03:34:04;;;;;;;4.25;3.22;;;17.80;97.90;;;;;;5035750;28;20554;-87
2022/07/27 03:36:31;;;;;;;4.20;3.80;;;17.80;98.40;;;;;;5033446;28;20225;-87
2022/07/27 03:38:59;;;;;;;6.05;3.35;;;17.80;97.60;;;;;;5036368;28;20294;-87
2022/07/27 03:41:26;;;;;;;5.63;3.20;;;17.70;97.90;;;;;;5031873;28;20223;-87
2022/07/27 03:43:58;;;;;;;4.07;3.70;;;17.70;98.10;;;;;;5032481;28;20565;-87
2022/07/27 03:46:25;;;;;;;3.70;3.40;;;17.60;98.40;;;;;;5032848;28;20225;-87
2022/07/27 03:48:52;;;;;;;4.40;3.00;;;17.60;98.50;;;;;;5035807;28;20206;-87
2022/07/27 03:51:19;;;;;;;5.07;3.38;;;17.60;98.20;;;;;;5038157;28;20218;-87
2022/07/27 03:53:46;;;;;;;3.42;2.97;;;17.90;97.60;;;;;;5035420;28;20280;-87
2022/07/27 03:56:14;;;;;;;4.00;3.08;;;17.90;97.30;;;;;;5035997;28;20224;-87
2022/07/27 03:58:46;;;;;;;4.70;2.90;;;18.00;96.60;;;;;;5039234;28;20289;-87
2022/07/27 04:01:13;;;;;;;4.55;3.20;;;18.00;95.00;;;;;;5037141;28;20202;-88
2022/07/27 04:03:40;;;;;;;3.65;3.25;;;18.10;94.90;;;;;;5034725;28;20206;-87
2022/07/27 04:06:07;;;;;;;5.25;2.90;;;18.20;94.80;;;;;;5037264;28;20677;-88
2022/07/27 04:08:34;;;;;;;5.80;3.30;;;18.40;93.60;;;;;;5031138;28;20199;-87
2022/07/27 04:11:00;;;;;;;4.20;2.88;;;18.50;92.70;;;;;;5032946;28;20314;-87
2022/07/27 04:13:29;;;;;;;4.47;3.30;;;18.60;92.30;;;;;;5037930;28;20198;-87
2022/07/27 04:15:58;;;;;;;8.45;3.13;;;18.60;92.30;;;;;;5037057;28;20672;-88
2022/07/27 04:18:28;;;;;;;6.80;3.00;;;18.50;92.30;;;;;;5036817;28;20201;-87
2022/07/27 04:20:55;;;;;;;3.33;3.03;;;18.50;92.30;;;;;;5033943;28;20195;-88
2022/07/27 04:23:22;;;;;;;5.85;2.97;;;18.50;92.30;;;;;;5036329;28;20201;-88
2022/07/27 04:25:49;;;;;;;3.83;2.88;;;18.50;91.60;;;;;;5036392;28;20206;-88
2022/07/27 04:28:15;;;;;;;4.90;2.85;;;18.60;90.60;;;;;;5034791;28;20195;-87
2022/07/27 04:30:44;;;;;;;5.35;2.60;;;18.60;89.00;;;;;;5034818;28;20512;-88
2022/07/27 04:33:11;;;;;;;8.27;2.97;;;18.80;87.70;;;;;;5035294;28;20809;-87
2022/07/27 04:35:38;;;;;;;4.18;2.35;;;18.90;85.10;;;;;;5035648;28;20198;-87
2022/07/27 04:38:04;;;;;;;3.63;2.63;;;19.00;82.60;;;;;;5033783;28;20198;-88
2022/07/27 04:40:32;;;;;;;4.40;2.83;;;19.10;82.20;;;;;;5035088;28;20213;-88
2022/07/27 04:43:11;;;;;;;6.55;2.70;;;19.00;80.10;;;;;;5034711;28;20209;-88
2022/07/27 04:45:38;;;;;;;7.07;2.97;;;18.90;84.00;;;;;;5033750;28;20223;-86
2022/07/27 04:48:12;;;;;;;8.40;2.90;;;18.70;85.60;;;;;;5034101;28;20202;-87
2022/07/27 04:50:40;;;;;;;2.92;2.70;;;18.60;84.70;;;;;;5035131;28;20240;-87
2022/07/27 04:53:07;;;;;;;3.90;2.70;;;18.70;86.80;;;;;;5032518;28;20206;-88
2022/07/27 04:55:34;;;;;;;5.07;2.78;;;18.70;85.70;;;;;;5032647;28;20229;-88
2022/07/27 04:58:01;;;;;;;4.80;2.63;;;18.90;85.20;;;;;;5034004;28;20209;-87
2022/07/27 05:00:28;;;;;;;5.30;2.90;;;19.00;80.80;;;;;;5036812;28;20285;-88
2022/07/27 05:02:55;;;;;;;3.22;2.33;;;19.10;80.20;;;;;;5030229;28;20209;-87
2022/07/27 05:05:42;;;;;;;3.67;2.70;;;19.30;78.70;;;;;;5037209;28;20205;-89
2022/07/27 05:08:22;;;;;;;5.93;2.30;;;19.30;77.20;;;;;;5044575;28;20250;-90
2022/07/27 05:10:49;;;;;;;5.10;2.70;;;19.40;78.10;;;;;;5044717;28;20236;-89
2022/07/27 05:13:16;;;;;;;3.55;2.90;;;19.30;78.30;;;;;;5035320;28;20258;-91
2022/07/27 05:15:46;;;;;;;4.72;2.53;;;19.10;80.20;;;;;;5034497;28;20198;-90
2022/07/27 05:18:13;;;;;;;8.15;3.00;;;19.10;82.10;;;;;;5034004;28;20195;-91
2022/07/27 05:20:42;;;;;;;3.05;2.80;;;19.10;80.20;;;;;;5036959;28;20559;-90
2022/07/27 05:23:08;;;;;;;4.15;2.90;;;19.30;79.10;;;;;;5036400;28;20195;-90
2022/07/27 05:25:35;;;;;;;5.30;2.72;;;19.30;78.90;;;;;;5037586;28;20201;-90
2022/07/27 05:28:02;;;;;;;5.65;3.13;;;19.20;80.30;;;;;;5035319;28;20285;-89
2022/07/27 05:30:30;;;;;;;6.35;2.83;;;19.30;80.30;;;;;;5037481;28;20210;-88
2022/07/27 05:32:58;;;;;;;3.45;2.50;;;19.40;80.40;;;;;;5020304;28;20227;-90
2022/07/27 05:35:25;;;;;;;5.82;3.00;;;19.40;80.40;;;;;;5041658;28;20281;-88
2022/07/27 05:37:53;;;;;;;8.82;3.03;;;19.40;80.40;;;;;;5043630;28;20598;-89
2022/07/27 05:40:20;;;;;;;4.25;2.90;;;19.50;77.50;;;;;;5037221;28;20203;-89
2022/07/27 05:42:47;;;;;;;6.68;3.25;;;19.60;76.00;;;;;;5032180;28;20207;-89
2022/07/27 05:45:22;;;;;;;3.15;2.60;;;19.70;75.90;;;;;;5027573;28;20196;-89
2022/07/27 05:47:49;;;;;;;4.18;3.05;;;19.60;76.50;;;;;;5039041;28;20683;-89
2022/07/27 05:50:16;;;;;;;4.85;2.72;;;19.80;76.70;;;;;;5039247;28;20530;-89
2022/07/27 05:52:43;;;;;;;3.40;2.53;;;19.90;75.10;;;;;;5042124;28;20227;-89
2022/07/27 05:55:12;;;;;;;2.92;2.60;;;19.90;76.60;;;;;;5034823;28;20209;-89
2022/07/27 05:57:41;;;;;;;7.88;2.92;;;20.00;77.00;;;;;;5036346;28;20209;-89
2022/07/27 06:00:11;;;;;;;9.00;3.03;;;19.90;80.80;;;;;;5031718;28;20230;-89
2022/07/27 06:02:38;;;;;;;9.27;3.10;;;20.10;77.00;;;;;;5031341;28;20658;-89
2022/07/27 06:05:06;;;;;;;5.13;2.70;;;20.40;74.70;;;;;;5026699;28;20677;-89
2022/07/27 06:10:24;;;;;;;7.63;2.90;;;20.60;67.00;;;;;;5034229;28;20296;-89
2022/07/27 06:12:51;;;;;;;5.55;2.88;;;20.50;70.10;;;;;;5027222;28;20226;-89
2022/07/27 06:15:24;;;;;;;4.80;2.90;;;20.70;66.00;;;;;;5026088;28;20202;-89
2022/07/27 06:17:52;;;;;;;6.15;3.00;;;20.90;66.20;;;;;;5023296;28;20213;-88
2022/07/27 06:20:20;;;;;;;11.05;2.80;;;21.00;64.90;;;;;;5028739;28;20202;-89
2022/07/27 06:22:49;;;;;;;5.95;2.70;;;21.00;60.70;;;;;;5032614;28;20614;-89
2022/07/27 06:25:16;;;;;;;3.78;2.47;;;21.10;58.20;;;;;;5028300;28;20680;-89
2022/07/27 06:27:45;;;;;;;3.90;2.70;;;21.10;56.90;;;;;;5026437;28;20229;-89
2022/07/27 06:30:13;;;;;;;3.50;2.58;;;21.20;58.20;;;;;;5028525;28;20654;-85
2022/07/27 06:32:40;;;;;;;6.07;2.90;;;21.10;61.70;;;;;;5042903;28;20308;-87
2022/07/27 06:35:08;;;;;;;7.95;2.85;;;21.30;59.00;;;;;;5035259;28;20195;-87
2022/07/27 06:37:35;;;;;;;6.13;2.92;;;21.30;57.10;;;;;;5038628;28;20217;-87
2022/07/27 06:40:03;;;;;;;6.38;2.92;;;21.30;57.10;;;;;;5034371;28;20299;-87
2022/07/27 06:42:30;;;;;;;5.47;3.10;;;21.40;57.20;;;;;;5038863;28;20643;-87
2022/07/27 06:45:00;;;;;;;3.13;2.75;;;21.40;57.20;;;;;;5035575;28;20199;-87
2022/07/27 06:47:27;;;;;;;3.85;2.60;;;21.40;57.20;;;;;;5039573;28;20206;-87
2022/07/27 06:49:58;;;;;;;6.53;2.83;;;21.40;57.20;;;;;;5040778;28;20293;-87
2022/07/27 06:52:28;;;;;;;5.32;3.28;;;21.50;54.80;;;;;;5039223;28;20305;-86
2022/07/27 06:54:55;;;;;;;9.50;3.00;;;21.60;55.80;;;;;;5040826;28;20199;-87
2022/07/27 06:57:22;;;;;;;4.57;2.60;;;21.70;56.50;;;;;;5041522;28;20290;-87
2022/07/27 06:59:49;;;;;;;9.32;3.17;;;21.80;56.20;;;;;;5039156;28;20202;-87
2022/07/27 07:02:18;;;;;;;6.20;3.60;;;21.90;55.10;;;;;;5036513;28;20211;-87
2022/07/27 07:04:45;;;;;;;6.30;2.90;;;21.90;51.50;;;;;;5041462;28;20579;-87
2022/07/27 07:07:17;;;;;;;8.93;3.22;;;21.70;50.40;;;;;;5039059;28;20202;-87
2022/07/27 07:09:43;;;;;;;7.78;3.63;;;21.70;51.20;;;;;;5037745;28;20570;-88
2022/07/27 07:12:10;;;;;;;9.73;3.25;;;21.50;51.30;;;;;;5037912;28;20244;-87
2022/07/27 07:14:37;;;;;;;6.97;3.67;;;21.60;52.60;;;;;;5036610;28;20205;-88
2022/07/27 07:17:04;;;;;;;4.63;3.25;;;21.90;49.60;;;;;;5033741;28;20197;-88
2022/07/27 07:19:42;;;;;;;5.53;3.35;;;22.40;46.20;;;;;;5033430;28;20605;-87
2022/07/27 07:22:09;;;;;;;4.68;3.25;;;22.70;44.00;;;;;;5030632;28;20198;-87
2022/07/27 07:24:35;;;;;;;6.63;3.35;;;22.80;42.20;;;;;;5034157;28;20201;-87
2022/07/27 07:27:02;;;;;;;4.53;3.03;;;22.80;42.40;;;;;;5028174;28;20203;-88
2022/07/27 07:29:34;;;;;;;6.30;3.08;;;23.20;41.50;;;;;;5032906;28;20201;-85
2022/07/27 07:32:01;;;;;;;10.30;3.80;;;23.30;40.70;;;;;;5032374;28;20234;-85
2022/07/27 07:34:28;;;;;;;6.35;3.35;;;23.10;41.60;;;;;;5040927;28;20289;-85
2022/07/27 07:36:56;;;;;;;6.85;3.08;;;22.90;40.20;;;;;;5029163;28;20247;-85
2022/07/27 07:39:23;;;;;;;7.03;3.20;;;22.80;41.30;;;;;;5044991;28;20195;-85
2022/07/27 07:41:51;;;;;;;9.40;3.13;;;22.80;41.70;;;;;;5046618;28;20282;-85
2022/07/27 07:44:18;;;;;;;9.75;3.58;;;22.90;39.20;;;;;;5046708;28;20195;-85
2022/07/27 07:46:45;;;;;;;4.25;2.75;;;23.10;37.90;;;;;;5045469;28;20226;-85
2022/07/27 07:49:12;;;;;;;6.93;3.35;;;23.40;39.10;;;;;;5043924;28;20273;-84
2022/07/27 07:51:39;;;;;;;7.25;3.38;;;23.50;35.00;;;;;;5045226;28;20302;-85
2022/07/27 07:54:07;;;;;;;5.82;3.10;;;23.50;35.10;;;;;;5045119;28;20201;-85
2022/07/27 07:56:34;;;;;;;9.73;3.22;;;23.40;35.90;;;;;;5037181;28;20293;-85
2022/07/27 07:59:03;;;;;;;5.53;2.58;;;23.40;34.90;;;;;;5032076;28;20266;-84
2022/07/27 08:01:30;;;;;;;9.98;3.00;;;23.30;31.90;;;;;;5046666;28;20214;-84
2022/07/27 08:03:57;;;;;;;5.70;2.55;;;23.50;31.60;;;;;;5033908;28;20211;-85
2022/07/27 08:06:24;;;;;;;6.78;2.67;;;23.80;31.20;;;;;;5045918;28;20255;-86
2022/07/27 08:08:51;;;;;;;6.18;3.08;;;23.80;32.10;;;;;;5032532;28;20230;-86
2022/07/27 08:11:24;;;;;;;2.90;2.50;;;23.70;32.10;;;;;;5039867;28;20213;-83
2022/07/27 08:13:51;;;;;;;6.07;2.40;;;23.80;29.80;;;;;;5042657;28;20652;-84
2022/07/27 08:16:18;;;;;;;4.75;2.47;;;24.00;27.20;;;;;;5028998;28;20306;-83
2022/07/27 08:18:44;;;;;;;4.57;2.60;;;24.30;27.00;;;;;;5036751;28;20256;-83
2022/07/27 08:21:11;;;;;;;5.18;2.42;;;24.40;26.30;;;;;;5046650;28;20210;-83
2022/07/27 08:23:38;;;;;;;4.78;2.00;;;24.20;23.30;;;;;;5044751;28;20202;-85
2022/07/27 08:26:05;;;;;;;5.45;2.15;;;24.30;25.40;;;;;;5046543;28;20212;-85
2022/07/27 08:28:33;;;;;;;2.92;1.77;;;24.60;23.50;;;;;;5044029;28;20234;-85
2022/07/27 08:31:00;;;;;;;4.40;1.90;;;24.80;22.00;;;;;;5046587;28;20274;-85
2022/07/27 08:33:28;;;;;;;4.82;2.30;;;24.90;21.40;;;;;;5045486;28;20281;-85
2022/07/27 08:35:56;;;;;;;3.58;2.28;;;25.20;22.90;;;;;;5049668;28;20277;-85
2022/07/27 08:38:26;;;;;;;5.43;2.58;;;25.40;25.90;;;;;;5046122;28;20341;-86
2022/07/27 08:40:55;;;;;;;5.55;2.70;;;25.60;24.80;;;;;;5048476;28;20230;-85
2022/07/27 08:43:24;;;;;;;8.95;2.55;;;25.70;19.90;;;;;;5046611;28;20572;-85
2022/07/27 08:45:55;;;;;;;5.90;2.75;;;26.10;20.40;;;;;;5048513;28;20214;-85
2022/07/27 08:48:23;;;;;;;7.60;2.50;;;26.00;20.30;;;;;;5048726;28;20209;-85
2022/07/27 08:50:50;;;;;;;4.63;2.40;;;25.90;22.60;;;;;;5029763;28;20213;-86
2022/07/27 08:53:18;;;;;;;7.15;2.47;;;26.00;22.20;;;;;;5023382;28;20281;-85
2022/07/27 08:55:46;;;;;;;4.10;2.35;;;26.20;20.00;;;;;;5042559;28;20830;-85
2022/07/27 08:58:17;;;;;;;5.93;2.40;;;26.20;20.70;;;;;;5046586;28;20222;-85
2022/07/27 09:00:46;;;;;;;4.35;2.33;;;26.10;20.20;;;;;;5042234;28;20212;-86
2022/07/27 09:03:16;;;;;;;5.40;2.58;;;26.20;20.90;;;;;;5036974;28;20260;-85
2022/07/27 09:05:44;;;;;;;3.20;2.47;;;25.90;21.70;;;;;;5047124;28;20224;-85
2022/07/27 09:08:13;;;;;;;4.32;2.03;;;25.50;22.20;;;;;;5036294;28;20618;-85
2022/07/27 09:10:40;;;;;;;5.35;2.35;;;25.50;23.10;;;;;;5046265;28;20212;-85
2022/07/27 09:13:19;;;;;;;5.03;2.17;;;25.40;22.60;;;;;;5045356;28;20232;-85
2022/07/27 09:15:47;;;;;;;4.38;2.10;;;25.30;24.40;;;;;;5046464;28;20550;-85
2022/07/27 09:18:21;;;;;;;5.13;2.65;;;25.00;21.90;;;;;;5044997;28;20209;-85
2022/07/27 09:21:11;;;;;;;3.83;2.40;;;24.80;22.80;;;;;;5045743;28;20233;-86
2022/07/27 09:23:38;;;;;;;5.07;2.28;;;24.90;23.60;;;;;;5047237;28;20238;-85
2022/07/27 09:26:13;;;;;;;7.38;2.60;;;25.20;23.50;;;;;;5046436;28;20202;-86
2022/07/27 09:28:40;;;;;;;2.55;2.08;;;25.60;23.20;;;;;;5047457;28;20205;-85
2022/07/27 09:31:09;;;;;;;5.90;2.30;;;25.90;20.30;;;;;;5047311;28;20208;-84
2022/07/27 09:33:45;;;;;;;3.28;2.40;;;25.90;21.40;;;;;;5047277;28;20241;-85
2022/07/27 09:36:13;;;;;;;3.13;2.08;;;26.00;20.30;;;;;;5048052;28;20220;-85
2022/07/27 09:38:50;;;;;;;2.70;1.95;;;26.00;22.50;;;;;;5048112;28;20267;-86
2022/07/27 09:41:18;;;;;;;3.00;1.92;;;26.30;20.20;;;;;;5044243;28;20218;-85
2022/07/27 09:43:46;;;;;;;4.75;2.30;;;26.40;19.20;;;;;;5043582;28;20210;-86
2022/07/27 09:46:13;;;;;;;2.85;2.10;;;26.50;19.10;;;;;;5044941;28;20205;-85
2022/07/27 09:48:41;;;;;;;5.20;2.30;;;27.10;17.90;;;;;;5038890;28;20203;-85
2022/07/27 09:51:11;;;;;;;4.85;2.30;;;27.60;15.40;;;;;;5034381;28;20282;-85
2022/07/27 09:53:38;;;;;;;6.70;2.40;;;27.90;15.60;;;;;;5035090;28;20229;-86
2022/07/27 09:56:07;;;;;;;4.35;1.88;;;28.40;15.80;;;;;;5038261;28;20578;-86
2022/07/27 09:58:42;;;;;;;3.08;2.13;;;28.90;15.80;;;;;;5034690;28;20649;-86
2022/07/27 10:01:10;;;;;;;3.28;2.17;;;29.30;13.50;;;;;;5033442;28;20288;-86
2022/07/27 10:03:38;;;;;;;7.15;2.38;;;29.00;13.90;;;;;;5039670;28;20210;-86
2022/07/27 10:06:05;;;;;;;4.93;2.45;;;28.00;15.60;;;;;;5036542;28;20202;-86
2022/07/27 10:08:37;;;;;;;4.78;2.53;;;27.30;16.20;;;;;;5042431;28;20212;-86
2022/07/27 10:11:04;;;;;;;4.65;3.03;;;26.80;16.30;;;;;;5038195;28;20198;-86
2022/07/27 10:13:30;;;;;;;2.88;2.45;;;26.40;19.20;;;;;;5040806;28;20225;-86
2022/07/27 10:15:59;;;;;;;6.88;2.70;;;26.80;17.00;;;;;;5032770;28;20212;-85
2022/07/27 10:18:33;;;;;;;4.35;2.53;;;27.10;17.50;;;;;;5038602;28;20256;-86
2022/07/27 10:21:06;;;;;;;2.83;2.50;;;27.50;15.40;;;;;;5026901;28;20198;-86
2022/07/27 10:23:37;;;;;;;4.78;2.42;;;27.90;15.60;;;;;;5033589;28;20237;-86
2022/07/27 10:26:21;;;;;;;4.57;2.70;;;27.50;18.00;;;;;;5036657;28;20205;-86
2022/07/27 10:28:53;;;;;;;5.57;2.60;;;27.20;17.30;;;;;;5037027;28;20212;-86
2022/07/27 10:31:22;;;;;;;4.78;2.50;;;27.40;18.10;;;;;;5033018;28;20204;-85
2022/07/27 10:33:51;;;;;;;3.05;2.13;;;27.00;17.80;;;;;;5043781;28;20240;-86
2022/07/27 10:36:51;;;;;;;5.80;2.00;;;26.90;17.60;;;;;;5043132;28;20202;-85
2022/07/27 10:39:39;;;;;;;3.00;2.13;;;27.70;15.50;;;;;;4974723;28;20209;-86
2022/07/27 10:42:29;;;;;;;4.38;2.08;;;27.80;15.50;;;;;;4959795;28;20209;-86
2022/07/27 10:45:02;;;;;;;3.28;2.08;;;27.50;15.40;;;;;;4964179;28;20209;-86
2022/07/27 10:47:31;;;;;;;2.25;2.03;;;27.10;16.30;;;;;;4961558;28;20211;-86
2022/07/27 10:50:20;;;;;;;4.00;2.10;;;26.90;17.30;;;;;;4959946;28;20216;-86
2022/07/27 10:52:49;;;;;;;2.95;2.00;;;26.90;16.30;;;;;;4956548;28;20735;-85
2022/07/27 10:55:45;;;;;;;4.38;2.30;;;27.40;15.30;;;;;;4959930;28;20224;-86
2022/07/27 10:58:43;;;;;;;4.38;2.30;;;28.20;15.70;;;;;;4963235;28;20209;-87
2022/07/27 11:01:12;;;;;;;2.97;1.90;;;28.50;16.30;;;;;;4952260;28;20204;-86
2022/07/27 11:03:40;;;;;;;4.80;2.20;;;28.30;15.80;;;;;;4942207;28;20208;-86
2022/07/27 11:06:09;;;;;;;3.55;2.20;;;28.80;12.70;;;;;;4957815;28;20212;-86
2022/07/27 11:08:38;;;;;;;3.53;2.00;;;29.30;14.10;;;;;;4961739;28;20216;-86
2022/07/27 11:11:08;;;;;;;4.32;2.30;;;28.50;13.30;;;;;;4963767;28;20668;-86
2022/07/27 11:13:35;;;;;;;3.53;2.03;;;27.90;14.40;;;;;;4964364;28;20229;-86
2022/07/27 11:16:06;;;;;;;2.53;2.00;;;27.60;15.40;;;;;;4995937;28;20273;-86
2022/07/27 11:18:34;;;;;;;7.40;2.20;;;27.40;15.30;;;;;;5040997;28;20202;-86
2022/07/27 11:21:14;;;;;;;2.80;2.20;;;27.20;15.20;;;;;;5036447;28;20288;-86
2022/07/27 11:23:41;;;;;;;3.25;2.10;;;27.40;15.40;;;;;;5033459;28;20198;-86
2022/07/27 11:26:10;;;;;;;5.05;2.10;;;27.50;15.40;;;;;;5042461;28;20202;-86
2022/07/27 11:28:37;;;;;;;6.78;1.90;;;27.20;15.20;;;;;;5042260;28;20198;-86
2022/07/27 11:31:05;;;;;;;5.05;1.90;;;26.80;16.00;;;;;;5041298;28;20220;-85
2022/07/27 11:33:33;;;;;;;2.30;2.08;;;27.20;15.20;;;;;;5041500;28;20598;-86
2022/07/27 11:36:02;;;;;;;4.38;2.15;;;27.20;15.20;;;;;;5042465;28;20208;-85
2022/07/27 11:38:29;;;;;;;4.82;2.00;;;27.10;15.20;;;;;;5041377;28;20661;-86
2022/07/27 11:40:56;;;;;;;3.38;2.35;;;26.90;16.10;;;;;;5041745;28;20273;-85
2022/07/27 11:43:40;;;;;;;3.45;2.28;;;26.80;15.00;;;;;;5038498;28;20202;-85
2022/07/27 11:46:19;;;;;;;4.78;2.00;;;26.40;15.80;;;;;;5031018;28;20206;-85
2022/07/27 11:48:51;;;;;;;4.63;2.03;;;26.20;16.40;;;;;;5044257;28;20252;-85
2022/07/27 11:51:18;;;;;;;2.30;1.85;;;26.20;15.70;;;;;;5049238;28;20214;-85
2022/07/27 11:53:45;;;;;;;2.75;1.90;;;26.50;16.20;;;;;;5048690;28;20316;-86
2022/07/27 11:56:12;;;;;;;5.82;2.20;;;26.30;18.50;;;;;;5048992;28;20236;-85
2022/07/27 11:58:59;;;;;;;5.18;2.00;;;26.20;19.20;;;;;;5038821;28;20205;-86
2022/07/27 12:01:27;;;;;;;2.60;2.10;;;26.80;17.80;;;;;;5003908;28;20203;-86
2022/07/27 12:04:11;;;;;;;3.42;2.05;;;26.60;17.80;;;;;;5008229;28;20282;-86
2022/07/27 12:06:39;;;;;;;5.18;1.92;;;26.20;16.40;;;;;;5003001;28;20295;-86
2022/07/27 12:09:08;;;;;;;4.55;2.03;;;26.00;17.90;;;;;;4999510;28;20214;-86
2022/07/27 12:11:57;;;;;;;3.33;1.90;;;25.80;17.90;;;;;;4997116;28;20214;-86
2022/07/27 12:14:34;;;;;;;3.25;2.20;;;26.20;18.40;;;;;;4997748;28;20584;-85
2022/07/27 12:17:25;;;;;;;4.15;1.83;;;26.30;17.00;;;;;;4997954;28;20740;-84
2022/07/27 12:20:01;;;;;;;4.05;2.05;;;26.50;17.30;;;;;;4996653;28;20214;-84
2022/07/27 12:22:34;;;;;;;2.50;1.92;;;27.20;15.30;;;;;;4996851;28;20210;-85
2022/07/27 12:25:06;;;;;;;2.25;2.05;;;27.50;15.40;;;;;;5000026;28;20200;-83
2022/07/27 12:27:33;;;;;;;2.38;2.03;;;27.60;15.40;;;;;;5003556;28;20291;-83
2022/07/27 12:30:10;;;;;;;3.60;2.00;;;27.90;15.60;;;;;;4997605;28;20192;-83
2022/07/27 12:32:39;;;;;;;3.20;2.47;;;28.00;15.60;;;;;;4993026;28;20282;-82
2022/07/27 12:35:24;;;;;;;4.95;2.30;;;27.90;15.60;;;;;;4995678;28;20195;-83
2022/07/27 12:37:58;;;;;;;3.42;1.85;;;27.50;15.40;;;;;;4995249;28;20221;-88
2022/07/27 12:40:26;;;;;;;2.95;2.10;;;27.50;15.40;;;;;;5034349;28;20212;-83
2022/07/27 12:42:57;;;;;;;3.88;2.10;;;27.30;15.30;;;;;;5038412;28;20681;-82
2022/07/27 12:45:32;;;;;;;4.38;2.42;;;27.10;15.20;;;;;;5036449;28;20198;-83
2022/07/27 12:48:10;;;;;;;7.53;2.38;;;26.90;17.00;;;;;;5028824;28;20193;-81
2022/07/27 12:50:39;;;;;;;4.00;2.38;;;26.80;17.60;;;;;;5037762;28;20251;-84
2022/07/27 12:53:06;;;;;;;6.50;2.05;;;26.40;16.40;;;;;;5041959;28;20233;-82
2022/07/27 12:55:33;;;;;;;3.88;2.28;;;26.40;18.50;;;;;;5028143;28;20222;-85
2022/07/27 12:58:00;;;;;;;4.38;2.00;;;26.10;17.30;;;;;;5037225;28;20678;-82
2022/07/27 13:00:29;;;;;;;3.30;1.90;;;26.30;17.50;;;;;;5029419;28;20206;-81
2022/07/27 13:02:57;;;;;;;2.20;2.00;;;26.60;16.90;;;;;;5036248;28;20234;-82